sensor_id;sensor_type;location;lat;lon;timestamp;P1;durP1;ratioP1;P2;durP2;ratioP2
21894;SDS011;11112;51.270;7.224;2022-08-06T00:02:07;3.95;;;1.00;;
21894;SDS011;11112;51.270;7.224;2022-08-06T00:04:35;5.90;;;1.10;;
21894;SDS011;11112;51.270;7.224;2022-08-06T00:07:02;4.65;;;0.85;;
21894;SDS011;11112;51.270;7.224;2022-08-06T00:09:29;2.00;;;0.70;;
21894;SDS011;11112;51.270;7.224;2022-08-06T00:12:00;4.90;;;0.80;;
21894;SDS011;11112;51.270;7.224;2022-08-06T00:14:30;3.30;;;0.80;;
21894;SDS011;11112;51.270;7.224;2022-08-06T00:17:03;7.80;;;0.80;;
21894;SDS011;11112;51.270;7.224;2022-08-06T00:19:30;4.43;;;0.90;;
21894;SDS011;11112;51.270;7.224;2022-08-06T00:21:59;2.53;;;0.70;;
21894;SDS011;11112;51.270;7.224;2022-08-06T00:24:26;6.78;;;0.90;;
21894;SDS011;11112;51.270;7.224;2022-08-06T00:26:53;4.07;;;1.13;;
21894;SDS011;11112;51.270;7.224;2022-08-06T00:29:22;2.95;;;0.70;;
21894;SDS011;11112;51.270;7.224;2022-08-06T00:31:49;3.28;;;0.70;;
21894;SDS011;11112;51.270;7.224;2022-08-06T00:34:16;5.10;;;1.08;;
21894;SDS011;11112;51.270;7.224;2022-08-06T00:36:43;4.45;;;0.98;;
21894;SDS011;11112;51.270;7.224;2022-08-06T00:39:10;2.17;;;0.63;;
21894;SDS011;11112;51.270;7.224;2022-08-06T00:41:38;4.32;;;0.82;;
21894;SDS011;11112;51.270;7.224;2022-08-06T00:44:05;3.17;;;1.00;;
21894;SDS011;11112;51.270;7.224;2022-08-06T00:46:33;3.80;;;0.80;;
21894;SDS011;11112;51.270;7.224;2022-08-06T00:49:01;3.03;;;0.80;;
21894;SDS011;11112;51.270;7.224;2022-08-06T00:51:32;4.00;;;0.82;;
21894;SDS011;11112;51.270;7.224;2022-08-06T00:54:00;4.13;;;0.88;;
21894;SDS011;11112;51.270;7.224;2022-08-06T00:56:27;4.95;;;1.20;;
21894;SDS011;11112;51.270;7.224;2022-08-06T00:58:54;4.30;;;0.70;;
21894;SDS011;11112;51.270;7.224;2022-08-06T01:01:22;4.13;;;0.73;;
21894;SDS011;11112;51.270;7.224;2022-08-06T01:03:50;4.30;;;0.73;;
21894;SDS011;11112;51.270;7.224;2022-08-06T01:06:18;3.25;;;0.80;;
21894;SDS011;11112;51.270;7.224;2022-08-06T01:08:46;6.07;;;1.00;;
21894;SDS011;11112;51.270;7.224;2022-08-06T01:11:13;2.63;;;0.80;;
21894;SDS011;11112;51.270;7.224;2022-08-06T01:13:40;3.67;;;1.20;;
21894;SDS011;11112;51.270;7.224;2022-08-06T01:16:09;5.13;;;0.80;;
21894;SDS011;11112;51.270;7.224;2022-08-06T01:18:50;5.68;;;1.15;;
21894;SDS011;11112;51.270;7.224;2022-08-06T01:24:40;4.97;;;1.13;;
21894;SDS011;11112;51.270;7.224;2022-08-06T01:27:28;3.25;;;0.80;;
21894;SDS011;11112;51.270;7.224;2022-08-06T01:30:06;3.25;;;0.80;;
21894;SDS011;11112;51.270;7.224;2022-08-06T01:32:39;4.45;;;0.88;;
21894;SDS011;11112;51.270;7.224;2022-08-06T01:35:14;3.85;;;0.63;;
21894;SDS011;11112;51.270;7.224;2022-08-06T01:37:48;2.80;;;1.10;;
21894;SDS011;11112;51.270;7.224;2022-08-06T01:40:25;3.20;;;0.80;;
21894;SDS011;11112;51.270;7.224;2022-08-06T01:42:57;6.07;;;0.90;;
21894;SDS011;11112;51.270;7.224;2022-08-06T01:45:27;3.10;;;0.73;;
21894;SDS011;11112;51.270;7.224;2022-08-06T01:47:58;2.60;;;0.80;;
21894;SDS011;11112;51.270;7.224;2022-08-06T01:50:30;4.40;;;0.90;;
21894;SDS011;11112;51.270;7.224;2022-08-06T01:53:01;4.07;;;0.82;;
21894;SDS011;11112;51.270;7.224;2022-08-06T01:55:31;3.15;;;0.80;;
21894;SDS011;11112;51.270;7.224;2022-08-06T01:58:06;1.73;;;0.80;;
21894;SDS011;11112;51.270;7.224;2022-08-06T02:00:35;4.72;;;0.98;;
21894;SDS011;11112;51.270;7.224;2022-08-06T02:03:08;2.60;;;0.65;;
21894;SDS011;11112;51.270;7.224;2022-08-06T02:05:41;4.07;;;0.80;;
21894;SDS011;11112;51.270;7.224;2022-08-06T02:08:11;3.42;;;0.80;;
21894;SDS011;11112;51.270;7.224;2022-08-06T02:10:41;3.35;;;0.80;;
21894;SDS011;11112;51.270;7.224;2022-08-06T02:13:11;4.28;;;0.82;;
21894;SDS011;11112;51.270;7.224;2022-08-06T02:15:42;3.60;;;1.20;;
21894;SDS011;11112;51.270;7.224;2022-08-06T02:18:10;3.70;;;0.93;;
21894;SDS011;11112;51.270;7.224;2022-08-06T02:20:40;2.92;;;0.70;;
21894;SDS011;11112;51.270;7.224;2022-08-06T02:23:13;2.67;;;0.77;;
21894;SDS011;11112;51.270;7.224;2022-08-06T02:25:44;4.18;;;0.95;;
21894;SDS011;11112;51.270;7.224;2022-08-06T02:28:15;3.97;;;0.93;;
21894;SDS011;11112;51.270;7.224;2022-08-06T02:30:45;3.95;;;0.90;;
21894;SDS011;11112;51.270;7.224;2022-08-06T02:33:15;4.05;;;0.95;;
21894;SDS011;11112;51.270;7.224;2022-08-06T02:35:44;2.15;;;0.73;;
21894;SDS011;11112;51.270;7.224;2022-08-06T02:38:17;4.40;;;0.88;;
21894;SDS011;11112;51.270;7.224;2022-08-06T02:40:50;4.80;;;0.88;;
21894;SDS011;11112;51.270;7.224;2022-08-06T02:43:27;3.92;;;0.70;;
21894;SDS011;11112;51.270;7.224;2022-08-06T02:46:02;3.15;;;0.90;;
21894;SDS011;11112;51.270;7.224;2022-08-06T02:48:38;4.00;;;1.00;;
21894;SDS011;11112;51.270;7.224;2022-08-06T02:51:10;3.53;;;0.93;;
21894;SDS011;11112;51.270;7.224;2022-08-06T02:53:42;4.05;;;0.80;;
21894;SDS011;11112;51.270;7.224;2022-08-06T02:56:19;4.53;;;1.05;;
21894;SDS011;11112;51.270;7.224;2022-08-06T02:58:49;3.58;;;0.85;;
21894;SDS011;11112;51.270;7.224;2022-08-06T03:01:20;3.38;;;0.82;;
21894;SDS011;11112;51.270;7.224;2022-08-06T03:03:52;4.25;;;1.13;;
21894;SDS011;11112;51.270;7.224;2022-08-06T03:06:24;4.18;;;1.20;;
21894;SDS011;11112;51.270;7.224;2022-08-06T03:08:58;3.33;;;0.90;;
21894;SDS011;11112;51.270;7.224;2022-08-06T03:11:29;4.88;;;0.90;;
21894;SDS011;11112;51.270;7.224;2022-08-06T03:14:02;4.57;;;1.02;;
21894;SDS011;11112;51.270;7.224;2022-08-06T03:16:31;5.18;;;1.00;;
21894;SDS011;11112;51.270;7.224;2022-08-06T03:19:02;3.80;;;0.93;;
21894;SDS011;11112;51.270;7.224;2022-08-06T03:21:30;4.97;;;0.90;;
21894;SDS011;11112;51.270;7.224;2022-08-06T03:23:59;3.08;;;0.98;;
21894;SDS011;11112;51.270;7.224;2022-08-06T03:26:28;3.80;;;1.05;;
21894;SDS011;11112;51.270;7.224;2022-08-06T03:28:58;3.13;;;0.90;;
21894;SDS011;11112;51.270;7.224;2022-08-06T03:31:27;3.50;;;1.00;;
21894;SDS011;11112;51.270;7.224;2022-08-06T03:33:56;5.72;;;1.10;;
21894;SDS011;11112;51.270;7.224;2022-08-06T03:36:27;3.28;;;1.13;;
21894;SDS011;11112;51.270;7.224;2022-08-06T03:38:56;3.97;;;1.00;;
21894;SDS011;11112;51.270;7.224;2022-08-06T03:41:35;3.90;;;1.13;;
21894;SDS011;11112;51.270;7.224;2022-08-06T03:44:05;3.17;;;0.82;;
21894;SDS011;11112;51.270;7.224;2022-08-06T03:46:34;4.18;;;1.20;;
21894;SDS011;11112;51.270;7.224;2022-08-06T03:49:08;2.80;;;0.90;;
21894;SDS011;11112;51.270;7.224;2022-08-06T03:51:39;3.90;;;1.20;;
21894;SDS011;11112;51.270;7.224;2022-08-06T03:54:08;2.78;;;0.90;;
21894;SDS011;11112;51.270;7.224;2022-08-06T03:56:37;2.42;;;0.82;;
21894;SDS011;11112;51.270;7.224;2022-08-06T03:59:07;2.97;;;1.00;;
21894;SDS011;11112;51.270;7.224;2022-08-06T04:01:40;5.50;;;1.20;;
21894;SDS011;11112;51.270;7.224;2022-08-06T04:04:09;4.40;;;1.23;;
21894;SDS011;11112;51.270;7.224;2022-08-06T04:06:36;2.63;;;1.10;;
21894;SDS011;11112;51.270;7.224;2022-08-06T04:09:04;2.75;;;1.17;;
21894;SDS011;11112;51.270;7.224;2022-08-06T04:11:32;3.58;;;1.08;;
21894;SDS011;11112;51.270;7.224;2022-08-06T04:13:59;6.45;;;1.00;;
21894;SDS011;11112;51.270;7.224;2022-08-06T04:16:29;3.70;;;1.10;;
21894;SDS011;11112;51.270;7.224;2022-08-06T04:18:57;3.58;;;1.13;;
21894;SDS011;11112;51.270;7.224;2022-08-06T04:21:26;2.50;;;1.08;;
21894;SDS011;11112;51.270;7.224;2022-08-06T04:23:54;3.25;;;1.20;;
21894;SDS011;11112;51.270;7.224;2022-08-06T04:26:21;3.70;;;1.15;;
21894;SDS011;11112;51.270;7.224;2022-08-06T04:28:53;4.93;;;1.60;;
21894;SDS011;11112;51.270;7.224;2022-08-06T04:31:22;5.20;;;1.30;;
21894;SDS011;11112;51.270;7.224;2022-08-06T04:33:53;3.47;;;1.40;;
21894;SDS011;11112;51.270;7.224;2022-08-06T04:36:22;3.38;;;1.08;;
21894;SDS011;11112;51.270;7.224;2022-08-06T04:38:49;5.35;;;1.30;;
21894;SDS011;11112;51.270;7.224;2022-08-06T04:41:17;3.50;;;1.42;;
21894;SDS011;11112;51.270;7.224;2022-08-06T04:43:45;4.40;;;1.48;;
21894;SDS011;11112;51.270;7.224;2022-08-06T04:46:13;3.97;;;1.30;;
21894;SDS011;11112;51.270;7.224;2022-08-06T04:48:40;4.10;;;1.70;;
21894;SDS011;11112;51.270;7.224;2022-08-06T04:51:09;2.97;;;1.70;;
21894;SDS011;11112;51.270;7.224;2022-08-06T04:53:39;4.18;;;1.27;;
21894;SDS011;11112;51.270;7.224;2022-08-06T04:56:07;4.95;;;1.67;;
21894;SDS011;11112;51.270;7.224;2022-08-06T04:58:35;3.15;;;1.52;;
21894;SDS011;11112;51.270;7.224;2022-08-06T05:01:03;4.15;;;1.35;;
21894;SDS011;11112;51.270;7.224;2022-08-06T05:03:30;5.60;;;1.63;;
21894;SDS011;11112;51.270;7.224;2022-08-06T05:05:59;3.35;;;1.40;;
21894;SDS011;11112;51.270;7.224;2022-08-06T05:08:33;4.55;;;1.50;;
21894;SDS011;11112;51.270;7.224;2022-08-06T05:11:08;4.20;;;1.30;;
21894;SDS011;11112;51.270;7.224;2022-08-06T05:13:43;2.95;;;1.17;;
21894;SDS011;11112;51.270;7.224;2022-08-06T05:16:13;3.22;;;1.20;;
21894;SDS011;11112;51.270;7.224;2022-08-06T05:18:43;4.28;;;1.88;;
21894;SDS011;11112;51.270;7.224;2022-08-06T05:21:16;4.63;;;1.33;;
21894;SDS011;11112;51.270;7.224;2022-08-06T05:23:50;3.60;;;1.58;;
21894;SDS011;11112;51.270;7.224;2022-08-06T05:28:48;4.25;;;1.20;;
21894;SDS011;11112;51.270;7.224;2022-08-06T05:31:27;2.47;;;1.13;;
21894;SDS011;11112;51.270;7.224;2022-08-06T05:33:55;3.97;;;1.60;;
21894;SDS011;11112;51.270;7.224;2022-08-06T05:36:23;3.53;;;1.23;;
21894;SDS011;11112;51.270;7.224;2022-08-06T05:38:51;5.90;;;1.80;;
21894;SDS011;11112;51.270;7.224;2022-08-06T05:41:18;3.85;;;1.60;;
21894;SDS011;11112;51.270;7.224;2022-08-06T05:43:46;3.72;;;1.30;;
21894;SDS011;11112;51.270;7.224;2022-08-06T05:46:14;5.20;;;1.40;;
21894;SDS011;11112;51.270;7.224;2022-08-06T05:48:45;5.90;;;1.10;;
21894;SDS011;11112;51.270;7.224;2022-08-06T05:51:19;4.05;;;1.33;;
21894;SDS011;11112;51.270;7.224;2022-08-06T05:54:05;5.45;;;1.27;;
21894;SDS011;11112;51.270;7.224;2022-08-06T05:56:39;5.55;;;1.63;;
21894;SDS011;11112;51.270;7.224;2022-08-06T05:59:11;2.65;;;1.20;;
21894;SDS011;11112;51.270;7.224;2022-08-06T06:01:45;3.55;;;1.55;;
21894;SDS011;11112;51.270;7.224;2022-08-06T06:04:13;5.88;;;1.90;;
21894;SDS011;11112;51.270;7.224;2022-08-06T06:06:40;5.07;;;1.67;;
21894;SDS011;11112;51.270;7.224;2022-08-06T06:09:10;4.93;;;1.50;;
21894;SDS011;11112;51.270;7.224;2022-08-06T06:11:38;4.25;;;1.50;;
21894;SDS011;11112;51.270;7.224;2022-08-06T06:14:08;5.72;;;2.10;;
21894;SDS011;11112;51.270;7.224;2022-08-06T06:16:55;5.88;;;2.20;;
21894;SDS011;11112;51.270;7.224;2022-08-06T06:20:02;5.40;;;2.30;;
21894;SDS011;11112;51.270;7.224;2022-08-06T06:22:41;4.70;;;2.00;;
21894;SDS011;11112;51.270;7.224;2022-08-06T06:25:20;6.22;;;2.05;;
21894;SDS011;11112;51.270;7.224;2022-08-06T06:27:53;6.75;;;2.13;;
21894;SDS011;11112;51.270;7.224;2022-08-06T06:30:28;6.65;;;2.05;;
21894;SDS011;11112;51.270;7.224;2022-08-06T06:33:02;5.68;;;2.20;;
21894;SDS011;11112;51.270;7.224;2022-08-06T06:35:41;6.65;;;2.10;;
21894;SDS011;11112;51.270;7.224;2022-08-06T06:38:18;5.82;;;1.90;;
21894;SDS011;11112;51.270;7.224;2022-08-06T06:41:03;5.82;;;1.80;;
21894;SDS011;11112;51.270;7.224;2022-08-06T06:43:39;7.68;;;2.10;;
21894;SDS011;11112;51.270;7.224;2022-08-06T06:46:15;5.90;;;1.85;;
21894;SDS011;11112;51.270;7.224;2022-08-06T06:48:50;7.30;;;1.50;;
21894;SDS011;11112;51.270;7.224;2022-08-06T06:51:24;7.10;;;1.47;;
21894;SDS011;11112;51.270;7.224;2022-08-06T06:53:58;4.68;;;1.10;;
21894;SDS011;11112;51.270;7.224;2022-08-06T06:56:28;7.80;;;1.10;;
21894;SDS011;11112;51.270;7.224;2022-08-06T06:59:02;4.65;;;0.80;;
21894;SDS011;11112;51.270;7.224;2022-08-06T07:01:34;6.45;;;0.95;;
21894;SDS011;11112;51.270;7.224;2022-08-06T07:04:03;7.28;;;1.00;;
21894;SDS011;11112;51.270;7.224;2022-08-06T07:06:35;3.13;;;0.90;;
21894;SDS011;11112;51.270;7.224;2022-08-06T07:09:03;3.20;;;0.57;;
21894;SDS011;11112;51.270;7.224;2022-08-06T07:11:34;5.20;;;0.70;;
21894;SDS011;11112;51.270;7.224;2022-08-06T07:14:02;7.75;;;0.80;;
21894;SDS011;11112;51.270;7.224;2022-08-06T07:16:30;2.75;;;0.65;;
21894;SDS011;11112;51.270;7.224;2022-08-06T07:18:59;3.03;;;0.52;;
21894;SDS011;11112;51.270;7.224;2022-08-06T07:21:28;3.22;;;0.50;;
21894;SDS011;11112;51.270;7.224;2022-08-06T07:23:56;4.55;;;0.90;;
21894;SDS011;11112;51.270;7.224;2022-08-06T07:26:24;5.03;;;0.80;;
21894;SDS011;11112;51.270;7.224;2022-08-06T07:28:55;4.75;;;0.90;;
21894;SDS011;11112;51.270;7.224;2022-08-06T07:31:24;7.88;;;0.85;;
21894;SDS011;11112;51.270;7.224;2022-08-06T07:33:53;4.22;;;0.93;;
21894;SDS011;11112;51.270;7.224;2022-08-06T07:36:21;3.85;;;0.70;;
21894;SDS011;11112;51.270;7.224;2022-08-06T07:38:51;4.07;;;0.60;;
21894;SDS011;11112;51.270;7.224;2022-08-06T07:41:24;4.30;;;0.70;;
21894;SDS011;11112;51.270;7.224;2022-08-06T07:43:54;3.42;;;0.57;;
21894;SDS011;11112;51.270;7.224;2022-08-06T07:46:25;4.90;;;0.50;;
21894;SDS011;11112;51.270;7.224;2022-08-06T07:48:57;6.40;;;0.70;;
21894;SDS011;11112;51.270;7.224;2022-08-06T07:51:29;2.78;;;0.63;;
21894;SDS011;11112;51.270;7.224;2022-08-06T07:54:01;3.25;;;0.63;;
21894;SDS011;11112;51.270;7.224;2022-08-06T07:56:30;3.20;;;0.50;;
21894;SDS011;11112;51.270;7.224;2022-08-06T07:58:59;3.00;;;0.50;;
21894;SDS011;11112;51.270;7.224;2022-08-06T08:01:28;2.95;;;0.47;;
21894;SDS011;11112;51.270;7.224;2022-08-06T08:03:56;3.10;;;0.65;;
21894;SDS011;11112;51.270;7.224;2022-08-06T08:06:40;3.25;;;0.60;;
21894;SDS011;11112;51.270;7.224;2022-08-06T08:09:10;2.15;;;0.60;;
21894;SDS011;11112;51.270;7.224;2022-08-06T08:11:40;2.90;;;0.50;;
21894;SDS011;11112;51.270;7.224;2022-08-06T08:14:11;2.28;;;0.43;;
21894;SDS011;11112;51.270;7.224;2022-08-06T08:16:42;3.55;;;0.60;;
21894;SDS011;11112;51.270;7.224;2022-08-06T08:19:19;2.10;;;0.40;;
21894;SDS011;11112;51.270;7.224;2022-08-06T08:21:53;3.20;;;0.60;;
21894;SDS011;11112;51.270;7.224;2022-08-06T08:24:21;1.95;;;0.50;;
21894;SDS011;11112;51.270;7.224;2022-08-06T08:26:49;1.88;;;0.40;;
21894;SDS011;11112;51.270;7.224;2022-08-06T08:29:18;2.08;;;0.60;;
21894;SDS011;11112;51.270;7.224;2022-08-06T08:31:46;2.08;;;0.40;;
21894;SDS011;11112;51.270;7.224;2022-08-06T08:34:13;3.15;;;0.60;;
21894;SDS011;11112;51.270;7.224;2022-08-06T08:36:41;3.72;;;0.65;;
21894;SDS011;11112;51.270;7.224;2022-08-06T08:39:08;2.72;;;0.50;;
21894;SDS011;11112;51.270;7.224;2022-08-06T08:41:36;2.92;;;0.65;;
21894;SDS011;11112;51.270;7.224;2022-08-06T08:44:10;4.72;;;0.70;;
21894;SDS011;11112;51.270;7.224;2022-08-06T08:46:39;8.75;;;1.00;;
21894;SDS011;11112;51.270;7.224;2022-08-06T08:49:13;3.45;;;0.77;;
21894;SDS011;11112;51.270;7.224;2022-08-06T08:51:46;4.68;;;0.98;;
21894;SDS011;11112;51.270;7.224;2022-08-06T08:54:15;3.08;;;0.80;;
21894;SDS011;11112;51.270;7.224;2022-08-06T08:56:48;2.85;;;0.63;;
21894;SDS011;11112;51.270;7.224;2022-08-06T08:59:15;1.85;;;0.50;;
21894;SDS011;11112;51.270;7.224;2022-08-06T09:01:44;1.20;;;0.43;;
21894;SDS011;11112;51.270;7.224;2022-08-06T09:04:12;2.50;;;0.60;;
21894;SDS011;11112;51.270;7.224;2022-08-06T09:06:39;1.73;;;0.40;;
21894;SDS011;11112;51.270;7.224;2022-08-06T09:09:08;2.25;;;0.50;;
21894;SDS011;11112;51.270;7.224;2022-08-06T09:11:35;3.75;;;0.47;;
21894;SDS011;11112;51.270;7.224;2022-08-06T09:14:04;2.92;;;0.57;;
21894;SDS011;11112;51.270;7.224;2022-08-06T09:16:32;2.10;;;0.60;;
21894;SDS011;11112;51.270;7.224;2022-08-06T09:19:03;4.75;;;0.80;;
21894;SDS011;11112;51.270;7.224;2022-08-06T09:21:31;2.28;;;0.65;;
21894;SDS011;11112;51.270;7.224;2022-08-06T09:23:59;2.42;;;0.40;;
21894;SDS011;11112;51.270;7.224;2022-08-06T09:26:26;2.50;;;0.50;;
21894;SDS011;11112;51.270;7.224;2022-08-06T09:28:54;2.67;;;0.60;;
21894;SDS011;11112;51.270;7.224;2022-08-06T09:31:21;2.22;;;0.57;;
21894;SDS011;11112;51.270;7.224;2022-08-06T09:33:53;2.42;;;0.50;;
21894;SDS011;11112;51.270;7.224;2022-08-06T09:36:24;2.63;;;0.55;;
21894;SDS011;11112;51.270;7.224;2022-08-06T09:38:53;3.95;;;0.57;;
21894;SDS011;11112;51.270;7.224;2022-08-06T09:41:23;2.47;;;0.50;;
21894;SDS011;11112;51.270;7.224;2022-08-06T09:43:53;1.98;;;0.32;;
21894;SDS011;11112;51.270;7.224;2022-08-06T09:46:36;3.08;;;0.35;;
21894;SDS011;11112;51.270;7.224;2022-08-06T09:49:05;2.47;;;0.30;;
21894;SDS011;11112;51.270;7.224;2022-08-06T09:51:36;1.75;;;0.20;;
21894;SDS011;11112;51.270;7.224;2022-08-06T09:54:04;2.10;;;0.40;;
21894;SDS011;11112;51.270;7.224;2022-08-06T09:56:34;0.57;;;0.15;;
21894;SDS011;11112;51.270;7.224;2022-08-06T09:59:03;1.23;;;0.30;;
21894;SDS011;11112;51.270;7.224;2022-08-06T10:01:37;1.58;;;0.30;;
21894;SDS011;11112;51.270;7.224;2022-08-06T10:04:06;3.10;;;0.30;;
21894;SDS011;11112;51.270;7.224;2022-08-06T10:06:51;2.38;;;0.38;;
21894;SDS011;11112;51.270;7.224;2022-08-06T10:09:21;3.33;;;0.40;;
21894;SDS011;11112;51.270;7.224;2022-08-06T10:11:49;2.25;;;0.30;;
21894;SDS011;11112;51.270;7.224;2022-08-06T10:14:20;1.42;;;0.30;;
21894;SDS011;11112;51.270;7.224;2022-08-06T10:17:05;1.27;;;0.40;;
21894;SDS011;11112;51.270;7.224;2022-08-06T10:19:35;1.98;;;0.30;;
21894;SDS011;11112;51.270;7.224;2022-08-06T10:22:06;1.45;;;0.38;;
21894;SDS011;11112;51.270;7.224;2022-08-06T10:24:36;1.65;;;0.30;;
21894;SDS011;11112;51.270;7.224;2022-08-06T10:27:07;1.55;;;0.50;;
21894;SDS011;11112;51.270;7.224;2022-08-06T10:29:38;1.27;;;0.30;;
21894;SDS011;11112;51.270;7.224;2022-08-06T10:32:09;2.30;;;0.50;;
21894;SDS011;11112;51.270;7.224;2022-08-06T10:34:42;3.13;;;0.43;;
21894;SDS011;11112;51.270;7.224;2022-08-06T10:37:12;3.45;;;0.70;;
21894;SDS011;11112;51.270;7.224;2022-08-06T10:39:45;3.28;;;0.73;;
21894;SDS011;11112;51.270;7.224;2022-08-06T10:42:14;1.80;;;0.60;;
21894;SDS011;11112;51.270;7.224;2022-08-06T10:44:42;2.75;;;0.85;;
21894;SDS011;11112;51.270;7.224;2022-08-06T10:47:13;3.10;;;0.60;;
21894;SDS011;11112;51.270;7.224;2022-08-06T10:49:43;3.65;;;0.50;;
21894;SDS011;11112;51.270;7.224;2022-08-06T10:52:14;2.95;;;0.38;;
21894;SDS011;11112;51.270;7.224;2022-08-06T10:54:41;1.67;;;0.30;;
21894;SDS011;11112;51.270;7.224;2022-08-06T10:57:10;2.92;;;0.40;;
21894;SDS011;11112;51.270;7.224;2022-08-06T10:59:39;1.83;;;0.30;;
21894;SDS011;11112;51.270;7.224;2022-08-06T11:02:09;1.27;;;0.40;;
21894;SDS011;11112;51.270;7.224;2022-08-06T11:04:50;2.07;;;0.50;;
21894;SDS011;11112;51.270;7.224;2022-08-06T11:07:42;1.42;;;0.47;;
21894;SDS011;11112;51.270;7.224;2022-08-06T11:10:43;1.65;;;0.40;;
21894;SDS011;11112;51.270;7.224;2022-08-06T11:13:53;0.95;;;0.25;;
21894;SDS011;11112;51.270;7.224;2022-08-06T11:16:27;1.25;;;0.20;;
21894;SDS011;11112;51.270;7.224;2022-08-06T11:19:00;2.17;;;0.38;;
21894;SDS011;11112;51.270;7.224;2022-08-06T11:21:40;1.52;;;0.30;;
21894;SDS011;11112;51.270;7.224;2022-08-06T11:24:11;3.97;;;0.57;;
21894;SDS011;11112;51.270;7.224;2022-08-06T11:26:40;1.38;;;0.25;;
21894;SDS011;11112;51.270;7.224;2022-08-06T11:29:10;1.98;;;0.40;;
21894;SDS011;11112;51.270;7.224;2022-08-06T11:31:41;1.33;;;0.30;;
21894;SDS011;11112;51.270;7.224;2022-08-06T11:34:13;1.50;;;0.28;;
21894;SDS011;11112;51.270;7.224;2022-08-06T11:36:43;4.10;;;0.30;;
21894;SDS011;11112;51.270;7.224;2022-08-06T11:39:14;2.38;;;0.40;;
21894;SDS011;11112;51.270;7.224;2022-08-06T11:41:48;1.92;;;0.40;;
21894;SDS011;11112;51.270;7.224;2022-08-06T11:44:24;3.17;;;0.40;;
21894;SDS011;11112;51.270;7.224;2022-08-06T11:47:10;2.05;;;0.30;;
21894;SDS011;11112;51.270;7.224;2022-08-06T11:49:42;1.33;;;0.50;;
21894;SDS011;11112;51.270;7.224;2022-08-06T11:55:08;1.50;;;0.47;;
21894;SDS011;11112;51.270;7.224;2022-08-06T11:57:38;1.90;;;0.60;;
21894;SDS011;11112;51.270;7.224;2022-08-06T12:00:10;1.48;;;0.30;;
21894;SDS011;11112;51.270;7.224;2022-08-06T12:02:47;2.55;;;0.80;;
21894;SDS011;11112;51.270;7.224;2022-08-06T12:08:15;1.92;;;0.30;;
21894;SDS011;11112;51.270;7.224;2022-08-06T12:13:59;1.63;;;0.30;;
21894;SDS011;11112;51.270;7.224;2022-08-06T12:16:31;1.35;;;0.30;;
21894;SDS011;11112;51.270;7.224;2022-08-06T12:19:05;1.58;;;0.30;;
21894;SDS011;11112;51.270;7.224;2022-08-06T12:21:40;3.45;;;0.40;;
21894;SDS011;11112;51.270;7.224;2022-08-06T12:24:08;2.33;;;0.30;;
21894;SDS011;11112;51.270;7.224;2022-08-06T12:26:40;2.00;;;0.30;;
21894;SDS011;11112;51.270;7.224;2022-08-06T12:29:09;2.03;;;0.30;;
21894;SDS011;11112;51.270;7.224;2022-08-06T12:31:37;1.25;;;0.32;;
21894;SDS011;11112;51.270;7.224;2022-08-06T12:34:06;1.75;;;0.30;;
21894;SDS011;11112;51.270;7.224;2022-08-06T12:36:34;0.65;;;0.30;;
21894;SDS011;11112;51.270;7.224;2022-08-06T12:39:03;1.58;;;0.50;;
21894;SDS011;11112;51.270;7.224;2022-08-06T12:41:37;1.67;;;0.40;;
21894;SDS011;11112;51.270;7.224;2022-08-06T12:44:11;4.30;;;0.50;;
21894;SDS011;11112;51.270;7.224;2022-08-06T12:46:40;1.70;;;0.45;;
21894;SDS011;11112;51.270;7.224;2022-08-06T12:49:07;2.90;;;0.63;;
21894;SDS011;11112;51.270;7.224;2022-08-06T12:51:35;1.08;;;0.30;;
21894;SDS011;11112;51.270;7.224;2022-08-06T12:54:05;1.77;;;0.40;;
21894;SDS011;11112;51.270;7.224;2022-08-06T12:56:36;2.35;;;0.40;;
21894;SDS011;11112;51.270;7.224;2022-08-06T12:59:08;2.30;;;0.32;;
21894;SDS011;11112;51.270;7.224;2022-08-06T13:01:38;1.05;;;0.30;;
21894;SDS011;11112;51.270;7.224;2022-08-06T13:04:08;1.58;;;0.40;;
21894;SDS011;11112;51.270;7.224;2022-08-06T13:06:37;1.13;;;0.20;;
21894;SDS011;11112;51.270;7.224;2022-08-06T13:09:05;1.58;;;0.20;;
21894;SDS011;11112;51.270;7.224;2022-08-06T13:11:34;0.80;;;0.20;;
21894;SDS011;11112;51.270;7.224;2022-08-06T13:14:10;1.67;;;0.40;;
21894;SDS011;11112;51.270;7.224;2022-08-06T13:16:40;5.75;;;2.13;;
21894;SDS011;11112;51.270;7.224;2022-08-06T13:19:11;3.17;;;1.08;;
21894;SDS011;11112;51.270;7.224;2022-08-06T13:21:40;2.60;;;0.60;;
21894;SDS011;11112;51.270;7.224;2022-08-06T13:24:08;1.63;;;0.80;;
21894;SDS011;11112;51.270;7.224;2022-08-06T13:26:47;4.97;;;3.10;;
21894;SDS011;11112;51.270;7.224;2022-08-06T13:29:19;1.92;;;0.80;;
21894;SDS011;11112;51.270;7.224;2022-08-06T13:31:57;3.58;;;0.45;;
21894;SDS011;11112;51.270;7.224;2022-08-06T13:34:46;2.08;;;0.50;;
21894;SDS011;11112;51.270;7.224;2022-08-06T13:37:17;3.55;;;0.50;;
21894;SDS011;11112;51.270;7.224;2022-08-06T13:40:14;4.57;;;2.70;;
21894;SDS011;11112;51.270;7.224;2022-08-06T13:42:48;2.28;;;0.50;;
21894;SDS011;11112;51.270;7.224;2022-08-06T13:45:19;1.33;;;0.30;;
21894;SDS011;11112;51.270;7.224;2022-08-06T13:47:48;1.80;;;0.40;;
21894;SDS011;11112;51.270;7.224;2022-08-06T13:50:17;2.58;;;0.40;;
21894;SDS011;11112;51.270;7.224;2022-08-06T13:52:45;2.22;;;0.30;;
21894;SDS011;11112;51.270;7.224;2022-08-06T13:55:12;0.95;;;0.30;;
21894;SDS011;11112;51.270;7.224;2022-08-06T13:57:39;1.77;;;0.30;;
21894;SDS011;11112;51.270;7.224;2022-08-06T14:00:06;3.60;;;0.82;;
21894;SDS011;11112;51.270;7.224;2022-08-06T14:02:36;1.08;;;0.38;;
21894;SDS011;11112;51.270;7.224;2022-08-06T14:05:03;1.60;;;0.30;;
21894;SDS011;11112;51.270;7.224;2022-08-06T14:07:34;1.67;;;0.30;;
21894;SDS011;11112;51.270;7.224;2022-08-06T14:10:01;0.90;;;0.25;;
21894;SDS011;11112;51.270;7.224;2022-08-06T14:12:29;1.33;;;0.60;;
21894;SDS011;11112;51.270;7.224;2022-08-06T14:14:56;1.10;;;0.40;;
21894;SDS011;11112;51.270;7.224;2022-08-06T14:17:24;0.95;;;0.40;;
21894;SDS011;11112;51.270;7.224;2022-08-06T14:19:52;1.17;;;0.50;;
21894;SDS011;11112;51.270;7.224;2022-08-06T14:22:22;2.28;;;0.30;;
21894;SDS011;11112;51.270;7.224;2022-08-06T14:24:49;1.10;;;0.30;;
21894;SDS011;11112;51.270;7.224;2022-08-06T14:27:16;1.13;;;0.15;;
21894;SDS011;11112;51.270;7.224;2022-08-06T14:29:44;0.63;;;0.10;;
21894;SDS011;11112;51.270;7.224;2022-08-06T14:32:12;2.55;;;0.60;;
21894;SDS011;11112;51.270;7.224;2022-08-06T14:34:39;2.75;;;0.50;;
21894;SDS011;11112;51.270;7.224;2022-08-06T14:37:09;2.15;;;0.52;;
21894;SDS011;11112;51.270;7.224;2022-08-06T14:39:36;2.00;;;0.30;;
21894;SDS011;11112;51.270;7.224;2022-08-06T14:42:03;3.70;;;0.90;;
21894;SDS011;11112;51.270;7.224;2022-08-06T14:44:48;1.65;;;0.40;;
21894;SDS011;11112;51.270;7.224;2022-08-06T14:47:22;1.00;;;0.60;;
21894;SDS011;11112;51.270;7.224;2022-08-06T14:49:50;2.25;;;0.55;;
21894;SDS011;11112;51.270;7.224;2022-08-06T14:52:19;1.27;;;0.30;;
21894;SDS011;11112;51.270;7.224;2022-08-06T14:54:46;0.85;;;0.30;;
21894;SDS011;11112;51.270;7.224;2022-08-06T14:57:14;5.90;;;0.93;;
21894;SDS011;11112;51.270;7.224;2022-08-06T14:59:42;2.40;;;0.50;;
21894;SDS011;11112;51.270;7.224;2022-08-06T15:02:10;0.95;;;0.30;;
21894;SDS011;11112;51.270;7.224;2022-08-06T15:04:37;4.80;;;2.72;;
21894;SDS011;11112;51.270;7.224;2022-08-06T15:07:05;6.75;;;2.70;;
21894;SDS011;11112;51.270;7.224;2022-08-06T15:09:34;2.08;;;1.10;;
21894;SDS011;11112;51.270;7.224;2022-08-06T15:12:01;2.15;;;0.40;;
21894;SDS011;11112;51.270;7.224;2022-08-06T15:14:29;2.40;;;0.57;;
21894;SDS011;11112;51.270;7.224;2022-08-06T15:16:56;1.73;;;0.77;;
21894;SDS011;11112;51.270;7.224;2022-08-06T15:19:23;2.47;;;0.70;;
21894;SDS011;11112;51.270;7.224;2022-08-06T15:21:50;0.95;;;0.30;;
21894;SDS011;11112;51.270;7.224;2022-08-06T15:24:18;3.20;;;0.57;;
21894;SDS011;11112;51.270;7.224;2022-08-06T15:26:46;1.20;;;0.30;;